sensor_id;sensor_type;location;lat;lon;timestamp;P1;durP1;ratioP1;P2;durP2;ratioP2
11924;SDS011;6022;48.768;18.608;2023-07-31T00:00:20;0.33;;;0.33;;
11924;SDS011;6022;48.768;18.608;2023-07-31T00:02:47;1.33;;;1.13;;
11924;SDS011;6022;48.768;18.608;2023-07-31T00:05:17;0.60;;;0.60;;
11924;SDS011;6022;48.768;18.608;2023-07-31T00:07:44;1.00;;;0.90;;
11924;SDS011;6022;48.768;18.608;2023-07-31T00:10:12;0.70;;;0.70;;
11924;SDS011;6022;48.768;18.608;2023-07-31T00:12:43;0.90;;;0.90;;
11924;SDS011;6022;48.768;18.608;2023-07-31T00:15:12;0.93;;;0.50;;
11924;SDS011;6022;48.768;18.608;2023-07-31T00:17:41;2.30;;;0.93;;
11924;SDS011;6022;48.768;18.608;2023-07-31T00:20:08;2.53;;;1.30;;
11924;SDS011;6022;48.768;18.608;2023-07-31T00:22:36;1.43;;;0.73;;
11924;SDS011;6022;48.768;18.608;2023-07-31T00:25:05;0.87;;;0.60;;
11924;SDS011;6022;48.768;18.608;2023-07-31T00:27:35;0.83;;;0.80;;
11924;SDS011;6022;48.768;18.608;2023-07-31T00:30:02;1.93;;;0.90;;
11924;SDS011;6022;48.768;18.608;2023-07-31T00:32:30;0.93;;;0.63;;
11924;SDS011;6022;48.768;18.608;2023-07-31T00:34:57;0.90;;;0.90;;
11924;SDS011;6022;48.768;18.608;2023-07-31T00:37:25;1.33;;;1.23;;
11924;SDS011;6022;48.768;18.608;2023-07-31T00:39:52;0.93;;;0.93;;
11924;SDS011;6022;48.768;18.608;2023-07-31T00:42:19;0.90;;;0.90;;
11924;SDS011;6022;48.768;18.608;2023-07-31T00:44:46;0.60;;;0.60;;
11924;SDS011;6022;48.768;18.608;2023-07-31T00:47:14;0.70;;;0.70;;
11924;SDS011;6022;48.768;18.608;2023-07-31T00:49:41;1.00;;;1.00;;
11924;SDS011;6022;48.768;18.608;2023-07-31T00:52:09;0.73;;;0.73;;
11924;SDS011;6022;48.768;18.608;2023-07-31T00:54:36;1.13;;;1.00;;
11924;SDS011;6022;48.768;18.608;2023-07-31T00:57:04;0.90;;;0.90;;
11924;SDS011;6022;48.768;18.608;2023-07-31T00:59:35;1.03;;;1.03;;
11924;SDS011;6022;48.768;18.608;2023-07-31T01:02:02;0.90;;;0.90;;
11924;SDS011;6022;48.768;18.608;2023-07-31T01:04:31;1.17;;;0.60;;
11924;SDS011;6022;48.768;18.608;2023-07-31T01:07:13;0.97;;;0.77;;
11924;SDS011;6022;48.768;18.608;2023-07-31T01:10:21;0.83;;;0.83;;
11924;SDS011;6022;48.768;18.608;2023-07-31T01:12:57;0.60;;;0.60;;
11924;SDS011;6022;48.768;18.608;2023-07-31T01:15:25;3.07;;;1.00;;
11924;SDS011;6022;48.768;18.608;2023-07-31T01:17:52;0.90;;;0.90;;
11924;SDS011;6022;48.768;18.608;2023-07-31T01:20:23;1.10;;;0.90;;
11924;SDS011;6022;48.768;18.608;2023-07-31T01:31:33;1.33;;;1.10;;
11924;SDS011;6022;48.768;18.608;2023-07-31T01:34:03;0.77;;;0.77;;
11924;SDS011;6022;48.768;18.608;2023-07-31T01:36:32;0.97;;;0.80;;
11924;SDS011;6022;48.768;18.608;2023-07-31T01:39:00;1.07;;;0.83;;
11924;SDS011;6022;48.768;18.608;2023-07-31T01:41:28;0.77;;;0.70;;
11924;SDS011;6022;48.768;18.608;2023-07-31T01:43:56;1.40;;;0.93;;
11924;SDS011;6022;48.768;18.608;2023-07-31T01:46:23;0.73;;;0.60;;
11924;SDS011;6022;48.768;18.608;2023-07-31T01:48:50;0.93;;;0.93;;
11924;SDS011;6022;48.768;18.608;2023-07-31T01:51:17;1.20;;;1.10;;
11924;SDS011;6022;48.768;18.608;2023-07-31T01:53:45;0.90;;;0.90;;
11924;SDS011;6022;48.768;18.608;2023-07-31T01:56:12;0.33;;;0.33;;
11924;SDS011;6022;48.768;18.608;2023-07-31T01:58:40;0.73;;;0.73;;
11924;SDS011;6022;48.768;18.608;2023-07-31T02:01:08;1.30;;;1.20;;
11924;SDS011;6022;48.768;18.608;2023-07-31T02:03:35;0.90;;;0.90;;
11924;SDS011;6022;48.768;18.608;2023-07-31T02:06:03;1.07;;;0.97;;
11924;SDS011;6022;48.768;18.608;2023-07-31T02:08:31;1.13;;;0.90;;
11924;SDS011;6022;48.768;18.608;2023-07-31T02:10:59;0.80;;;0.77;;
11924;SDS011;6022;48.768;18.608;2023-07-31T02:13:29;1.07;;;1.00;;
11924;SDS011;6022;48.768;18.608;2023-07-31T02:15:56;1.90;;;1.10;;
11924;SDS011;6022;48.768;18.608;2023-07-31T02:18:24;1.80;;;1.23;;
11924;SDS011;6022;48.768;18.608;2023-07-31T02:20:51;1.50;;;1.40;;
11924;SDS011;6022;48.768;18.608;2023-07-31T02:23:19;1.63;;;1.53;;
11924;SDS011;6022;48.768;18.608;2023-07-31T02:25:47;1.30;;;1.20;;
11924;SDS011;6022;48.768;18.608;2023-07-31T02:28:14;2.00;;;1.47;;
11924;SDS011;6022;48.768;18.608;2023-07-31T02:30:44;1.53;;;1.43;;
11924;SDS011;6022;48.768;18.608;2023-07-31T02:33:13;1.63;;;1.53;;
11924;SDS011;6022;48.768;18.608;2023-07-31T02:35:41;1.67;;;1.57;;
11924;SDS011;6022;48.768;18.608;2023-07-31T02:38:08;1.47;;;1.37;;
11924;SDS011;6022;48.768;18.608;2023-07-31T02:40:36;1.77;;;1.57;;
11924;SDS011;6022;48.768;18.608;2023-07-31T02:43:03;2.70;;;1.90;;
11924;SDS011;6022;48.768;18.608;2023-07-31T02:45:31;1.30;;;1.20;;
11924;SDS011;6022;48.768;18.608;2023-07-31T02:47:58;1.40;;;1.40;;
11924;SDS011;6022;48.768;18.608;2023-07-31T02:50:28;1.50;;;1.23;;
11924;SDS011;6022;48.768;18.608;2023-07-31T02:52:56;1.83;;;1.53;;
11924;SDS011;6022;48.768;18.608;2023-07-31T02:55:23;1.27;;;1.17;;
11924;SDS011;6022;48.768;18.608;2023-07-31T02:57:50;2.10;;;1.00;;
11924;SDS011;6022;48.768;18.608;2023-07-31T03:00:19;1.87;;;1.40;;
11924;SDS011;6022;48.768;18.608;2023-07-31T03:02:49;1.47;;;1.37;;
11924;SDS011;6022;48.768;18.608;2023-07-31T03:05:16;1.83;;;1.53;;
11924;SDS011;6022;48.768;18.608;2023-07-31T03:07:43;1.13;;;1.13;;
11924;SDS011;6022;48.768;18.608;2023-07-31T03:10:10;1.47;;;1.37;;
11924;SDS011;6022;48.768;18.608;2023-07-31T03:12:41;1.00;;;1.00;;
11924;SDS011;6022;48.768;18.608;2023-07-31T03:15:08;0.90;;;0.90;;
11924;SDS011;6022;48.768;18.608;2023-07-31T03:17:39;1.33;;;1.23;;
11924;SDS011;6022;48.768;18.608;2023-07-31T03:20:06;1.67;;;1.57;;
11924;SDS011;6022;48.768;18.608;2023-07-31T03:22:34;1.17;;;0.77;;
11924;SDS011;6022;48.768;18.608;2023-07-31T03:25:02;0.60;;;0.57;;
11924;SDS011;6022;48.768;18.608;2023-07-31T03:27:30;1.17;;;1.10;;
11924;SDS011;6022;48.768;18.608;2023-07-31T03:29:57;1.23;;;1.13;;
11924;SDS011;6022;48.768;18.608;2023-07-31T03:32:25;1.33;;;1.23;;
11924;SDS011;6022;48.768;18.608;2023-07-31T03:34:52;3.33;;;2.23;;
11924;SDS011;6022;48.768;18.608;2023-07-31T03:37:20;1.93;;;1.70;;
11924;SDS011;6022;48.768;18.608;2023-07-31T03:39:47;1.70;;;1.60;;
11924;SDS011;6022;48.768;18.608;2023-07-31T03:42:15;1.40;;;1.27;;
11924;SDS011;6022;48.768;18.608;2023-07-31T03:44:42;1.80;;;1.70;;
11924;SDS011;6022;48.768;18.608;2023-07-31T03:47:10;1.93;;;1.80;;
11924;SDS011;6022;48.768;18.608;2023-07-31T03:49:37;1.30;;;1.27;;
11924;SDS011;6022;48.768;18.608;2023-07-31T03:52:05;2.20;;;2.10;;
11924;SDS011;6022;48.768;18.608;2023-07-31T03:54:33;1.37;;;1.27;;
11924;SDS011;6022;48.768;18.608;2023-07-31T03:57:00;1.63;;;1.50;;
11924;SDS011;6022;48.768;18.608;2023-07-31T03:59:30;1.70;;;1.60;;
11924;SDS011;6022;48.768;18.608;2023-07-31T04:01:57;1.20;;;1.07;;
11924;SDS011;6022;48.768;18.608;2023-07-31T04:04:24;1.60;;;1.50;;
11924;SDS011;6022;48.768;18.608;2023-07-31T04:06:52;1.60;;;1.50;;
11924;SDS011;6022;48.768;18.608;2023-07-31T04:09:19;1.60;;;1.50;;
11924;SDS011;6022;48.768;18.608;2023-07-31T04:11:47;1.40;;;1.30;;
11924;SDS011;6022;48.768;18.608;2023-07-31T04:14:14;1.13;;;1.07;;
11924;SDS011;6022;48.768;18.608;2023-07-31T04:16:43;1.93;;;1.47;;
11924;SDS011;6022;48.768;18.608;2023-07-31T04:19:10;1.30;;;1.20;;
11924;SDS011;6022;48.768;18.608;2023-07-31T04:21:42;1.90;;;1.63;;
11924;SDS011;6022;48.768;18.608;2023-07-31T04:24:10;2.60;;;1.70;;
11924;SDS011;6022;48.768;18.608;2023-07-31T04:26:37;3.07;;;1.90;;
11924;SDS011;6022;48.768;18.608;2023-07-31T04:29:05;1.50;;;1.50;;
11924;SDS011;6022;48.768;18.608;2023-07-31T04:31:33;1.60;;;1.50;;
11924;SDS011;6022;48.768;18.608;2023-07-31T04:34:04;2.17;;;1.97;;
11924;SDS011;6022;48.768;18.608;2023-07-31T04:36:32;2.17;;;1.83;;
11924;SDS011;6022;48.768;18.608;2023-07-31T04:39:00;1.33;;;1.23;;
11924;SDS011;6022;48.768;18.608;2023-07-31T04:41:28;2.77;;;2.47;;
11924;SDS011;6022;48.768;18.608;2023-07-31T04:43:55;2.53;;;1.83;;
11924;SDS011;6022;48.768;18.608;2023-07-31T04:46:22;2.33;;;2.13;;
11924;SDS011;6022;48.768;18.608;2023-07-31T04:48:50;3.77;;;3.00;;
11924;SDS011;6022;48.768;18.608;2023-07-31T04:51:17;2.33;;;2.07;;
11924;SDS011;6022;48.768;18.608;2023-07-31T04:53:44;4.50;;;2.60;;
11924;SDS011;6022;48.768;18.608;2023-07-31T04:56:11;2.57;;;2.30;;
11924;SDS011;6022;48.768;18.608;2023-07-31T04:58:38;2.93;;;2.63;;
11924;SDS011;6022;48.768;18.608;2023-07-31T05:01:10;3.33;;;3.00;;
11924;SDS011;6022;48.768;18.608;2023-07-31T05:03:37;2.47;;;2.27;;
11924;SDS011;6022;48.768;18.608;2023-07-31T05:06:05;2.73;;;2.20;;
11924;SDS011;6022;48.768;18.608;2023-07-31T05:08:32;3.17;;;2.30;;
11924;SDS011;6022;48.768;18.608;2023-07-31T05:11:00;2.03;;;1.83;;
11924;SDS011;6022;48.768;18.608;2023-07-31T05:13:27;2.63;;;1.80;;
11924;SDS011;6022;48.768;18.608;2023-07-31T05:15:54;2.50;;;2.30;;
11924;SDS011;6022;48.768;18.608;2023-07-31T05:18:21;2.13;;;1.87;;
11924;SDS011;6022;48.768;18.608;2023-07-31T05:20:49;2.37;;;2.00;;
11924;SDS011;6022;48.768;18.608;2023-07-31T05:23:16;2.30;;;2.07;;
11924;SDS011;6022;48.768;18.608;2023-07-31T05:25:43;1.83;;;1.73;;
11924;SDS011;6022;48.768;18.608;2023-07-31T05:28:11;2.43;;;2.13;;
11924;SDS011;6022;48.768;18.608;2023-07-31T05:30:41;1.53;;;1.40;;
11924;SDS011;6022;48.768;18.608;2023-07-31T05:33:13;3.40;;;2.43;;
11924;SDS011;6022;48.768;18.608;2023-07-31T05:35:43;2.73;;;2.53;;
11924;SDS011;6022;48.768;18.608;2023-07-31T05:38:17;2.83;;;2.57;;
11924;SDS011;6022;48.768;18.608;2023-07-31T05:40:47;2.13;;;1.97;;
11924;SDS011;6022;48.768;18.608;2023-07-31T05:43:18;1.10;;;1.10;;
11924;SDS011;6022;48.768;18.608;2023-07-31T05:45:45;1.57;;;1.47;;
11924;SDS011;6022;48.768;18.608;2023-07-31T05:48:14;1.80;;;1.67;;
11924;SDS011;6022;48.768;18.608;2023-07-31T05:50:43;1.93;;;1.80;;
11924;SDS011;6022;48.768;18.608;2023-07-31T05:53:10;4.50;;;3.70;;
11924;SDS011;6022;48.768;18.608;2023-07-31T05:55:38;5.33;;;3.60;;
11924;SDS011;6022;48.768;18.608;2023-07-31T05:58:05;5.03;;;3.97;;
11924;SDS011;6022;48.768;18.608;2023-07-31T06:00:32;6.00;;;4.30;;
11924;SDS011;6022;48.768;18.608;2023-07-31T06:02:59;6.87;;;4.03;;
11924;SDS011;6022;48.768;18.608;2023-07-31T06:05:29;8.60;;;4.73;;
11924;SDS011;6022;48.768;18.608;2023-07-31T06:07:57;5.17;;;3.70;;
11924;SDS011;6022;48.768;18.608;2023-07-31T06:10:26;3.93;;;3.60;;
11924;SDS011;6022;48.768;18.608;2023-07-31T06:12:54;2.87;;;2.47;;
11924;SDS011;6022;48.768;18.608;2023-07-31T06:15:24;3.77;;;2.63;;
11924;SDS011;6022;48.768;18.608;2023-07-31T06:17:52;2.67;;;2.20;;
11924;SDS011;6022;48.768;18.608;2023-07-31T06:20:20;2.70;;;1.77;;
11924;SDS011;6022;48.768;18.608;2023-07-31T06:22:48;1.53;;;1.43;;
11924;SDS011;6022;48.768;18.608;2023-07-31T06:25:15;2.40;;;1.60;;
11924;SDS011;6022;48.768;18.608;2023-07-31T06:27:42;2.50;;;1.27;;
11924;SDS011;6022;48.768;18.608;2023-07-31T06:30:09;1.23;;;1.20;;
11924;SDS011;6022;48.768;18.608;2023-07-31T06:32:37;0.83;;;0.83;;
11924;SDS011;6022;48.768;18.608;2023-07-31T06:35:06;1.30;;;1.23;;
11924;SDS011;6022;48.768;18.608;2023-07-31T06:37:34;1.07;;;0.97;;
11924;SDS011;6022;48.768;18.608;2023-07-31T06:40:03;1.10;;;1.00;;
11924;SDS011;6022;48.768;18.608;2023-07-31T06:42:35;0.90;;;0.90;;
11924;SDS011;6022;48.768;18.608;2023-07-31T06:45:03;1.10;;;1.00;;
11924;SDS011;6022;48.768;18.608;2023-07-31T06:47:30;1.13;;;1.03;;
11924;SDS011;6022;48.768;18.608;2023-07-31T06:49:58;1.47;;;1.40;;
11924;SDS011;6022;48.768;18.608;2023-07-31T06:52:25;1.03;;;0.93;;
11924;SDS011;6022;48.768;18.608;2023-07-31T06:55:14;0.87;;;0.80;;
11924;SDS011;6022;48.768;18.608;2023-07-31T06:57:46;1.00;;;0.80;;
11924;SDS011;6022;48.768;18.608;2023-07-31T07:00:15;0.60;;;0.60;;
11924;SDS011;6022;48.768;18.608;2023-07-31T07:02:43;0.77;;;0.77;;
11924;SDS011;6022;48.768;18.608;2023-07-31T07:05:16;1.40;;;0.80;;
11924;SDS011;6022;48.768;18.608;2023-07-31T07:07:44;3.73;;;1.07;;
11924;SDS011;6022;48.768;18.608;2023-07-31T07:10:12;1.93;;;1.23;;
11924;SDS011;6022;48.768;18.608;2023-07-31T07:12:39;2.37;;;0.87;;
11924;SDS011;6022;48.768;18.608;2023-07-31T07:15:06;2.10;;;0.80;;
11924;SDS011;6022;48.768;18.608;2023-07-31T07:17:34;1.23;;;1.00;;
11924;SDS011;6022;48.768;18.608;2023-07-31T07:20:01;3.03;;;0.90;;
11924;SDS011;6022;48.768;18.608;2023-07-31T07:22:30;1.30;;;1.20;;
11924;SDS011;6022;48.768;18.608;2023-07-31T07:24:57;1.83;;;1.63;;
11924;SDS011;6022;48.768;18.608;2023-07-31T07:27:32;1.87;;;0.90;;
11924;SDS011;6022;48.768;18.608;2023-07-31T07:30:07;3.40;;;1.03;;
11924;SDS011;6022;48.768;18.608;2023-07-31T07:32:35;1.97;;;1.17;;
11924;SDS011;6022;48.768;18.608;2023-07-31T07:35:11;2.60;;;1.40;;
11924;SDS011;6022;48.768;18.608;2023-07-31T07:37:50;2.37;;;1.10;;
11924;SDS011;6022;48.768;18.608;2023-07-31T07:40:52;2.77;;;1.77;;
11924;SDS011;6022;48.768;18.608;2023-07-31T07:43:22;1.07;;;0.97;;
11924;SDS011;6022;48.768;18.608;2023-07-31T07:45:56;2.33;;;1.10;;
11924;SDS011;6022;48.768;18.608;2023-07-31T07:48:24;1.20;;;1.10;;
11924;SDS011;6022;48.768;18.608;2023-07-31T07:50:55;1.20;;;1.10;;
11924;SDS011;6022;48.768;18.608;2023-07-31T07:53:23;1.77;;;1.27;;
11924;SDS011;6022;48.768;18.608;2023-07-31T07:56:00;0.80;;;0.70;;
11924;SDS011;6022;48.768;18.608;2023-07-31T07:58:28;1.93;;;1.33;;
11924;SDS011;6022;48.768;18.608;2023-07-31T08:00:57;0.80;;;0.80;;
11924;SDS011;6022;48.768;18.608;2023-07-31T08:03:24;1.07;;;0.97;;
11924;SDS011;6022;48.768;18.608;2023-07-31T08:05:52;2.27;;;1.37;;
11924;SDS011;6022;48.768;18.608;2023-07-31T08:08:19;1.70;;;1.13;;
11924;SDS011;6022;48.768;18.608;2023-07-31T08:10:46;0.90;;;0.90;;
11924;SDS011;6022;48.768;18.608;2023-07-31T08:13:13;1.17;;;0.83;;
11924;SDS011;6022;48.768;18.608;2023-07-31T08:15:41;2.80;;;0.97;;
11924;SDS011;6022;48.768;18.608;2023-07-31T08:18:16;1.43;;;1.00;;
11924;SDS011;6022;48.768;18.608;2023-07-31T08:20:44;1.23;;;1.00;;
11924;SDS011;6022;48.768;18.608;2023-07-31T08:23:12;0.80;;;0.80;;
11924;SDS011;6022;48.768;18.608;2023-07-31T08:25:39;2.27;;;0.87;;
11924;SDS011;6022;48.768;18.608;2023-07-31T08:28:06;1.73;;;1.03;;
11924;SDS011;6022;48.768;18.608;2023-07-31T08:30:36;5.37;;;1.50;;
11924;SDS011;6022;48.768;18.608;2023-07-31T08:33:04;1.60;;;1.33;;
11924;SDS011;6022;48.768;18.608;2023-07-31T08:35:34;0.90;;;0.90;;
11924;SDS011;6022;48.768;18.608;2023-07-31T08:38:02;1.20;;;1.07;;
11924;SDS011;6022;48.768;18.608;2023-07-31T08:40:30;1.27;;;1.17;;
11924;SDS011;6022;48.768;18.608;2023-07-31T08:43:00;1.47;;;1.20;;
11924;SDS011;6022;48.768;18.608;2023-07-31T08:45:28;1.83;;;1.30;;
11924;SDS011;6022;48.768;18.608;2023-07-31T08:47:57;1.20;;;1.07;;
11924;SDS011;6022;48.768;18.608;2023-07-31T08:50:25;2.67;;;1.30;;
11924;SDS011;6022;48.768;18.608;2023-07-31T08:53:02;1.23;;;0.90;;
11924;SDS011;6022;48.768;18.608;2023-07-31T08:55:51;0.73;;;0.73;;
11924;SDS011;6022;48.768;18.608;2023-07-31T08:58:22;1.07;;;1.07;;
11924;SDS011;6022;48.768;18.608;2023-07-31T09:01:03;0.70;;;0.70;;
11924;SDS011;6022;48.768;18.608;2023-07-31T09:03:34;1.50;;;1.03;;
11924;SDS011;6022;48.768;18.608;2023-07-31T09:06:05;1.13;;;0.80;;
11924;SDS011;6022;48.768;18.608;2023-07-31T09:08:33;1.37;;;1.20;;
11924;SDS011;6022;48.768;18.608;2023-07-31T09:11:02;2.07;;;1.17;;
11924;SDS011;6022;48.768;18.608;2023-07-31T09:13:32;1.60;;;1.10;;
11924;SDS011;6022;48.768;18.608;2023-07-31T09:15:59;2.47;;;1.33;;
11924;SDS011;6022;48.768;18.608;2023-07-31T09:18:27;6.23;;;1.50;;
11924;SDS011;6022;48.768;18.608;2023-07-31T09:21:01;1.57;;;1.07;;
11924;SDS011;6022;48.768;18.608;2023-07-31T09:23:43;1.43;;;1.33;;
11924;SDS011;6022;48.768;18.608;2023-07-31T09:26:16;1.00;;;0.90;;
11924;SDS011;6022;48.768;18.608;2023-07-31T09:29:04;1.43;;;1.20;;
11924;SDS011;6022;48.768;18.608;2023-07-31T09:31:38;1.50;;;1.40;;
11924;SDS011;6022;48.768;18.608;2023-07-31T09:34:10;1.20;;;1.13;;
11924;SDS011;6022;48.768;18.608;2023-07-31T09:36:42;1.87;;;1.10;;
11924;SDS011;6022;48.768;18.608;2023-07-31T09:39:17;1.40;;;1.30;;
11924;SDS011;6022;48.768;18.608;2023-07-31T09:41:48;1.80;;;1.30;;
11924;SDS011;6022;48.768;18.608;2023-07-31T09:44:36;1.20;;;1.10;;
11924;SDS011;6022;48.768;18.608;2023-07-31T09:47:21;2.50;;;1.20;;
11924;SDS011;6022;48.768;18.608;2023-07-31T09:49:53;1.50;;;1.40;;
11924;SDS011;6022;48.768;18.608;2023-07-31T09:52:21;2.07;;;1.00;;
11924;SDS011;6022;48.768;18.608;2023-07-31T09:54:48;1.07;;;1.00;;
11924;SDS011;6022;48.768;18.608;2023-07-31T09:57:15;1.20;;;1.10;;
11924;SDS011;6022;48.768;18.608;2023-07-31T09:59:46;2.87;;;1.30;;
11924;SDS011;6022;48.768;18.608;2023-07-31T10:02:22;1.80;;;1.63;;
11924;SDS011;6022;48.768;18.608;2023-07-31T10:04:54;1.73;;;1.40;;
11924;SDS011;6022;48.768;18.608;2023-07-31T10:07:26;0.70;;;0.70;;
11924;SDS011;6022;48.768;18.608;2023-07-31T10:09:57;1.80;;;1.70;;
11924;SDS011;6022;48.768;18.608;2023-07-31T10:12:29;1.67;;;1.50;;
11924;SDS011;6022;48.768;18.608;2023-07-31T10:15:01;1.77;;;1.60;;
11924;SDS011;6022;48.768;18.608;2023-07-31T10:17:30;1.73;;;1.50;;
11924;SDS011;6022;48.768;18.608;2023-07-31T10:20:01;1.37;;;1.20;;
11924;SDS011;6022;48.768;18.608;2023-07-31T10:22:33;1.00;;;1.00;;
11924;SDS011;6022;48.768;18.608;2023-07-31T10:25:01;2.20;;;1.77;;
11924;SDS011;6022;48.768;18.608;2023-07-31T10:27:28;1.37;;;1.33;;
11924;SDS011;6022;48.768;18.608;2023-07-31T10:29:56;2.27;;;1.30;;
11924;SDS011;6022;48.768;18.608;2023-07-31T10:32:25;1.00;;;0.83;;
11924;SDS011;6022;48.768;18.608;2023-07-31T10:36:17;0.90;;;0.90;;
11924;SDS011;6022;48.768;18.608;2023-07-31T10:38:54;1.10;;;1.00;;
11924;SDS011;6022;48.768;18.608;2023-07-31T10:41:31;1.67;;;1.57;;
11924;SDS011;6022;48.768;18.608;2023-07-31T10:44:03;3.17;;;0.87;;
11924;SDS011;6022;48.768;18.608;2023-07-31T10:46:33;1.60;;;1.50;;
11924;SDS011;6022;48.768;18.608;2023-07-31T10:49:02;1.27;;;1.17;;
11924;SDS011;6022;48.768;18.608;2023-07-31T10:51:38;1.33;;;1.23;;
11924;SDS011;6022;48.768;18.608;2023-07-31T10:54:12;1.00;;;1.00;;
11924;SDS011;6022;48.768;18.608;2023-07-31T10:56:45;1.60;;;1.50;;
11924;SDS011;6022;48.768;18.608;2023-07-31T10:59:16;1.43;;;1.33;;
11924;SDS011;6022;48.768;18.608;2023-07-31T11:01:50;0.97;;;0.90;;
11924;SDS011;6022;48.768;18.608;2023-07-31T11:04:25;1.47;;;1.37;;
11924;SDS011;6022;48.768;18.608;2023-07-31T11:07:00;1.87;;;1.47;;
11924;SDS011;6022;48.768;18.608;2023-07-31T11:09:37;1.47;;;1.37;;
11924;SDS011;6022;48.768;18.608;2023-07-31T11:12:09;1.27;;;1.27;;
11924;SDS011;6022;48.768;18.608;2023-07-31T11:14:59;1.20;;;1.10;;
11924;SDS011;6022;48.768;18.608;2023-07-31T11:17:29;1.40;;;1.20;;
11924;SDS011;6022;48.768;18.608;2023-07-31T11:20:03;3.17;;;0.90;;
11924;SDS011;6022;48.768;18.608;2023-07-31T11:22:51;1.53;;;1.43;;
11924;SDS011;6022;48.768;18.608;2023-07-31T11:25:36;1.27;;;1.07;;
11924;SDS011;6022;48.768;18.608;2023-07-31T11:28:11;1.77;;;0.97;;
11924;SDS011;6022;48.768;18.608;2023-07-31T11:30:41;1.00;;;1.00;;
11924;SDS011;6022;48.768;18.608;2023-07-31T11:33:19;1.43;;;1.30;;
11924;SDS011;6022;48.768;18.608;2023-07-31T11:35:47;1.97;;;1.10;;
11924;SDS011;6022;48.768;18.608;2023-07-31T11:38:22;1.03;;;0.93;;
11924;SDS011;6022;48.768;18.608;2023-07-31T11:40:51;1.13;;;1.07;;
11924;SDS011;6022;48.768;18.608;2023-07-31T11:43:22;1.40;;;1.30;;
11924;SDS011;6022;48.768;18.608;2023-07-31T11:45:51;1.20;;;1.10;;
11924;SDS011;6022;48.768;18.608;2023-07-31T11:48:31;2.27;;;1.57;;
11924;SDS011;6022;48.768;18.608;2023-07-31T11:51:05;0.80;;;0.80;;
11924;SDS011;6022;48.768;18.608;2023-07-31T11:56:49;2.70;;;1.17;;
11924;SDS011;6022;48.768;18.608;2023-07-31T11:59:17;1.33;;;1.03;;
11924;SDS011;6022;48.768;18.608;2023-07-31T12:01:46;1.10;;;0.97;;
11924;SDS011;6022;48.768;18.608;2023-07-31T12:04:16;3.60;;;1.37;;
11924;SDS011;6022;48.768;18.608;2023-07-31T12:06:44;1.43;;;1.13;;
11924;SDS011;6022;48.768;18.608;2023-07-31T12:09:11;1.50;;;1.20;;
11924;SDS011;6022;48.768;18.608;2023-07-31T12:11:45;0.63;;;0.63;;
11924;SDS011;6022;48.768;18.608;2023-07-31T12:16:58;1.00;;;1.00;;
11924;SDS011;6022;48.768;18.608;2023-07-31T12:19:30;1.57;;;1.10;;
11924;SDS011;6022;48.768;18.608;2023-07-31T12:22:01;1.20;;;1.10;;
11924;SDS011;6022;48.768;18.608;2023-07-31T12:24:38;1.63;;;1.40;;
11924;SDS011;6022;48.768;18.608;2023-07-31T12:29:39;0.97;;;0.80;;
11924;SDS011;6022;48.768;18.608;2023-07-31T12:32:23;1.10;;;1.10;;
11924;SDS011;6022;48.768;18.608;2023-07-31T12:34:52;1.37;;;1.27;;
11924;SDS011;6022;48.768;18.608;2023-07-31T12:37:20;1.27;;;1.17;;
11924;SDS011;6022;48.768;18.608;2023-07-31T12:39:48;1.47;;;0.97;;
11924;SDS011;6022;48.768;18.608;2023-07-31T12:42:17;1.03;;;0.90;;
11924;SDS011;6022;48.768;18.608;2023-07-31T12:44:44;1.30;;;1.07;;
11924;SDS011;6022;48.768;18.608;2023-07-31T12:47:17;1.50;;;0.97;;
11924;SDS011;6022;48.768;18.608;2023-07-31T12:49:56;1.23;;;1.10;;
11924;SDS011;6022;48.768;18.608;2023-07-31T12:52:23;1.67;;;1.10;;
11924;SDS011;6022;48.768;18.608;2023-07-31T12:54:50;1.83;;;1.10;;
11924;SDS011;6022;48.768;18.608;2023-07-31T12:57:17;0.70;;;0.70;;
11924;SDS011;6022;48.768;18.608;2023-07-31T12:59:44;0.87;;;0.87;;
11924;SDS011;6022;48.768;18.608;2023-07-31T13:02:11;1.00;;;1.00;;
11924;SDS011;6022;48.768;18.608;2023-07-31T13:04:38;2.50;;;1.20;;
11924;SDS011;6022;48.768;18.608;2023-07-31T13:07:06;1.30;;;1.20;;
11924;SDS011;6022;48.768;18.608;2023-07-31T13:09:33;1.17;;;0.80;;
11924;SDS011;6022;48.768;18.608;2023-07-31T13:12:03;1.63;;;1.07;;
11924;SDS011;6022;48.768;18.608;2023-07-31T13:14:30;0.90;;;0.90;;
11924;SDS011;6022;48.768;18.608;2023-07-31T13:16:57;2.03;;;0.93;;
11924;SDS011;6022;48.768;18.608;2023-07-31T13:19:25;2.17;;;1.00;;
11924;SDS011;6022;48.768;18.608;2023-07-31T13:21:52;1.80;;;1.47;;
11924;SDS011;6022;48.768;18.608;2023-07-31T13:24:19;2.37;;;1.23;;
11924;SDS011;6022;48.768;18.608;2023-07-31T13:26:46;1.50;;;0.90;;
11924;SDS011;6022;48.768;18.608;2023-07-31T13:29:16;1.10;;;0.77;;
11924;SDS011;6022;48.768;18.608;2023-07-31T13:31:44;1.13;;;1.00;;
11924;SDS011;6022;48.768;18.608;2023-07-31T13:34:11;2.40;;;1.10;;
11924;SDS011;6022;48.768;18.608;2023-07-31T13:36:38;1.30;;;1.20;;
11924;SDS011;6022;48.768;18.608;2023-07-31T13:39:05;1.00;;;1.00;;
11924;SDS011;6022;48.768;18.608;2023-07-31T13:41:33;1.63;;;1.20;;
11924;SDS011;6022;48.768;18.608;2023-07-31T13:44:00;1.10;;;1.10;;
11924;SDS011;6022;48.768;18.608;2023-07-31T13:46:27;1.33;;;1.07;;
11924;SDS011;6022;48.768;18.608;2023-07-31T13:48:54;1.07;;;0.97;;
11924;SDS011;6022;48.768;18.608;2023-07-31T13:51:22;3.50;;;0.93;;
11924;SDS011;6022;48.768;18.608;2023-07-31T13:53:49;0.90;;;0.70;;
11924;SDS011;6022;48.768;18.608;2023-07-31T13:56:16;0.97;;;0.97;;
11924;SDS011;6022;48.768;18.608;2023-07-31T13:58:43;1.60;;;1.10;;
11924;SDS011;6022;48.768;18.608;2023-07-31T14:01:10;1.20;;;0.50;;
11924;SDS011;6022;48.768;18.608;2023-07-31T14:03:37;2.40;;;1.63;;
11924;SDS011;6022;48.768;18.608;2023-07-31T14:06:04;1.10;;;0.90;;
11924;SDS011;6022;48.768;18.608;2023-07-31T14:08:34;1.03;;;0.90;;
11924;SDS011;6022;48.768;18.608;2023-07-31T14:11:01;6.53;;;1.50;;
11924;SDS011;6022;48.768;18.608;2023-07-31T14:13:28;1.13;;;0.83;;
11924;SDS011;6022;48.768;18.608;2023-07-31T14:15:57;1.30;;;1.10;;
11924;SDS011;6022;48.768;18.608;2023-07-31T14:18:24;1.50;;;1.10;;
11924;SDS011;6022;48.768;18.608;2023-07-31T14:20:52;0.93;;;0.93;;
11924;SDS011;6022;48.768;18.608;2023-07-31T14:23:23;3.43;;;0.90;;
11924;SDS011;6022;48.768;18.608;2023-07-31T14:25:50;1.33;;;0.80;;
11924;SDS011;6022;48.768;18.608;2023-07-31T14:28:18;1.67;;;1.17;;
11924;SDS011;6022;48.768;18.608;2023-07-31T14:30:45;0.80;;;0.80;;
11924;SDS011;6022;48.768;18.608;2023-07-31T14:33:12;0.77;;;0.77;;
11924;SDS011;6022;48.768;18.608;2023-07-31T14:35:39;1.60;;;1.03;;
11924;SDS011;6022;48.768;18.608;2023-07-31T14:38:08;2.00;;;1.20;;
11924;SDS011;6022;48.768;18.608;2023-07-31T14:40:35;0.70;;;0.70;;
11924;SDS011;6022;48.768;18.608;2023-07-31T14:43:06;1.27;;;1.17;;
11924;SDS011;6022;48.768;18.608;2023-07-31T14:45:33;1.37;;;0.90;;
11924;SDS011;6022;48.768;18.608;2023-07-31T14:48:01;2.67;;;0.70;;
11924;SDS011;6022;48.768;18.608;2023-07-31T14:50:28;1.20;;;0.90;;
11924;SDS011;6022;48.768;18.608;2023-07-31T14:52:55;0.93;;;0.60;;
11924;SDS011;6022;48.768;18.608;2023-07-31T14:55:22;0.80;;;0.80;;
11924;SDS011;6022;48.768;18.608;2023-07-31T14:57:49;0.77;;;0.77;;
11924;SDS011;6022;48.768;18.608;2023-07-31T15:00:17;2.17;;;0.70;;
11924;SDS011;6022;48.768;18.608;2023-07-31T15:02:44;0.87;;;0.67;;
11924;SDS011;6022;48.768;18.608;2023-07-31T15:05:11;0.63;;;0.57;;
11924;SDS011;6022;48.768;18.608;2023-07-31T15:07:38;1.00;;;0.90;;
11924;SDS011;6022;48.768;18.608;2023-07-31T15:10:06;0.70;;;0.70;;
11924;SDS011;6022;48.768;18.608;2023-07-31T15:12:34;1.10;;;0.97;;
11924;SDS011;6022;48.768;18.608;2023-07-31T15:15:01;2.87;;;0.87;;
11924;SDS011;6022;48.768;18.608;2023-07-31T15:17:28;0.60;;;0.60;;
11924;SDS011;6022;48.768;18.608;2023-07-31T15:19:56;1.13;;;0.80;;